CW2091 Weather Reports


time (UTC)temp
C
wind
direction
speed
KPH
gust
KPH
rain 1hr
cm
rain 24hr
cm
rain mn
cm
humidity
%
barometer
mb
20190825143113 31 157 1.6 6.4 0.00 0.00 0.00 42 1015.6
20190825140113 31 157 0.0 1.6 0.00 0.00 0.00 44 1015.9
20190825133113 30 90 0.0 1.6 0.00 0.00 0.00 44 1016.2
20190825123113 30 90 1.6 3.2 0.00 0.00 0.00 50 1016.5
20190825120113 30 90 1.6 4.8 0.00 0.00 0.00 48 1016.6
20190825113113 28 135 0.0 3.2 0.00 0.00 0.00 54 1016.8
20190825110113 28 112 0.0 3.2 0.00 0.00 0.00 53 1017.0
20190825103113 28 112 0.0 3.2 0.00 0.00 0.00 55 1017.0
20190825100113 27 112 0.0 1.6 0.00 0.00 0.00 59 1017.2
20190825093113 26 112 0.0 3.2 0.00 0.00 0.00 62 1017.3
20190825083113 24 90 0.0 1.6 0.00 0.00 0.00 69 1017.5
20190825073113 22 0 0.0 0.0 0.00 0.00 0.00 77 1017.4
20190825070113 21 90 0.0 1.6 0.00 0.00 0.00 81 1017.3
20190825063113 20 0 0.0 0.0 0.00 0.00 0.00 85 1017.1
20190825060113 18 0 0.0 0.0 0.00 0.00 0.00 88 1017.0
20190825053113 17 0 0.0 0.0 0.00 0.00 0.00 93 1016.9
20190825050113 17 0 0.0 0.0 0.00 0.00 0.00 92 1017.0
20190825043113 17 0 0.0 0.0 0.00 0.00 0.00 92 1016.9
20190825040113 17 0 0.0 0.0 0.00 0.00 0.00 92 1016.7
20190825030113 17 0 0.0 0.0 0.00 0.00 0.00 92 1016.2
20190825013113 18 0 0.0 0.0 0.00 0.00 0.00 88 1016.2
20190825000113 20 0 0.0 0.0 0.00 0.00 0.00 83 1016.3
20190824220112 21 0 0.0 0.0 0.00 0.00 0.00 79 1016.5
20190824203113 21 0 0.0 0.0 0.00 0.00 0.00 75 1016.5
20190824200113 22 0 0.0 0.0 0.00 0.00 0.00 72 1016.6
20190824190113 23 0 0.0 0.0 0.00 0.00 0.00 65 1016.7
20190824180112 26 0 0.0 0.0 0.00 0.00 0.00 55 1016.6
20190824173113 28 0 0.0 0.0 0.00 0.00 0.00 50 1016.5
20190824163113 29 90 0.0 1.6 0.00 0.00 0.00 47 1016.5
20190824160112 29 0 0.0 0.0 0.00 0.00 0.00 47 1016.7